Flight Track Log - Related Links

Times and Time Zones

All times are in EDT time to prevent confusion due to time zone crossing. See the SLI2466 flight status page for this flight to view local times or setup timezone preferences in your user account.

Time Position Orientation Groundspeed Altitude Reporting Facility
EDT Latitude Longitude Course Direction KTS MPH feet Rate Location/Type
Sat 10:43:00 AM 22.0113 -97.7106 153° Southeast  Level Estimated
Sat 10:44:00 AM 21.9400 -97.6719 153° Southeast  Level Estimated
Sat 10:45:00 AM 21.8686 -97.6332 153° Southeast  Level Estimated
Sat 10:46:00 AM 21.7973 -97.5946 153° Southeast  Level Estimated
Sat 10:47:00 AM 21.7260 -97.5560 153° Southeast  Level Estimated
Sat 10:48:00 AM 21.6546 -97.5174 153° Southeast  Level Estimated
Sat 10:49:00 AM 21.5833 -97.4789 153° Southeast  Level Estimated
Sat 10:50:00 AM 21.5119 -97.4404 153° Southeast  Level Estimated
Sat 10:51:00 AM 21.4405 -97.4020 153° Southeast  Level Estimated
Sat 10:52:00 AM 21.3691 -97.3635 153° Southeast  Level Estimated
Sat 10:53:00 AM 21.2977 -97.3252 153° Southeast  Level Estimated
Sat 10:54:00 AM 21.2263 -97.2868 153° Southeast  Level Estimated
Sat 10:55:00 AM 21.1549 -97.2485 153° Southeast  Level Estimated
Sat 10:56:00 AM 21.0835 -97.2103 153° Southeast  Level Estimated
Sat 10:57:00 AM 21.0121 -97.1720 153° Southeast  Level Estimated
Sat 10:58:00 AM 20.9406 -97.1338 153° Southeast  Level Estimated
Sat 10:59:00 AM 20.8692 -97.0957 153° Southeast  Level Estimated
Sat 11:00:00 AM 20.7977 -97.0575 153° Southeast  Level Estimated
Sat 11:01:00 AM 20.7262 -97.0195 154° Southeast  Level Estimated
Sat 11:02:00 AM 20.6548 -96.9814 154° Southeast  Level Estimated
Sat 11:03:00 AM 20.5833 -96.9434 154° Southeast  Level Estimated
Sat 11:04:00 AM 20.5118 -96.9054 154° Southeast  Level Estimated
Sat 11:05:00 AM 20.4403 -96.8675 154° Southeast  Level Estimated
Sat 11:06:00 AM 20.3688 -96.8296 154° Southeast  Level Estimated
Sat 11:07:00 AM 20.2973 -96.7917 154° Southeast  Level Estimated
Sat 11:08:00 AM 20.2258 -96.7539 154° Southeast  Level Estimated
Sat 11:09:00 AM 20.1542 -96.7161 154° Southeast  Level Estimated
Sat 11:10:00 AM 20.0827 -96.6783 154° Southeast  Level Estimated
Sat 11:11:00 AM 20.0111 -96.6406 154° Southeast  Level Estimated
Sat 11:12:00 AM 19.9396 -96.6029 154° Southeast  Level Estimated
Sat 11:13:00 AM 19.8680 -96.5652 154° Southeast  Level Estimated
Sat 11:14:00 AM 19.7965 -96.5276 154° Southeast  Level Estimated
Sat 11:15:00 AM 19.7249 -96.4900 154° Southeast  Level Estimated
Sat 11:16:00 AM 19.6533 -96.4524 154° Southeast  Level Estimated
Sat 11:17:00 AM 19.5817 -96.4149 154° Southeast  Level Estimated
Sat 11:18:00 AM 19.5101 -96.3774 154° Southeast  Level Estimated
Sat 11:19:00 AM 19.4385 -96.3399 154° Southeast  Level Estimated
Sat 11:20:00 AM 19.3669 -96.3025 154° Southeast  Level Estimated
Sat 11:21:00 AM 19.2952 -96.2651 154° Southeast  Level Estimated
Sat 11:22:00 AM 19.2236 -96.2277 154° Southeast  Level Estimated
Sat 11:23:00 AM 19.1520 -96.1904 154° Southeast  Level Estimated
Sat 11:24:00 AM 19.1459 -96.1873 154° Southeast  Level Estimated
Sat 11:25:00 AM 19.1459 -96.1873 71° East  Level Estimated
Sat 11:26:00 AM 19.1459 -96.1873 71° East  Level Estimated

Login

Don't have an account? Register now (free) for customized features, flight alerts, and more!